sensor_id;sensor_type;location;lat;lon;timestamp;P1;durP1;ratioP1;P2;durP2;ratioP2
63807;SDS011;49961;43.970;22.868;2023-07-31T00:00:00;12.50;;;11.40;;
63807;SDS011;49961;43.970;22.868;2023-07-31T00:01:01;12.63;;;11.40;;
63807;SDS011;49961;43.970;22.868;2023-07-31T00:02:01;12.43;;;11.30;;
63807;SDS011;49961;43.970;22.868;2023-07-31T00:03:01;12.30;;;11.17;;
63807;SDS011;49961;43.970;22.868;2023-07-31T00:04:02;12.60;;;11.43;;
63807;SDS011;49961;43.970;22.868;2023-07-31T00:05:03;13.00;;;11.50;;
63807;SDS011;49961;43.970;22.868;2023-07-31T00:06:03;12.87;;;11.67;;
63807;SDS011;49961;43.970;22.868;2023-07-31T00:07:04;12.00;;;11.00;;
63807;SDS011;49961;43.970;22.868;2023-07-31T00:08:06;12.00;;;11.00;;
63807;SDS011;49961;43.970;22.868;2023-07-31T00:09:06;12.63;;;11.50;;
63807;SDS011;49961;43.970;22.868;2023-07-31T00:10:07;12.53;;;11.43;;
63807;SDS011;49961;43.970;22.868;2023-07-31T00:11:07;12.00;;;10.90;;
63807;SDS011;49961;43.970;22.868;2023-07-31T00:12:08;13.50;;;12.10;;
63807;SDS011;49961;43.970;22.868;2023-07-31T00:13:08;12.97;;;11.77;;
63807;SDS011;49961;43.970;22.868;2023-07-31T00:14:09;12.50;;;11.40;;
63807;SDS011;49961;43.970;22.868;2023-07-31T00:15:09;12.23;;;11.17;;
63807;SDS011;49961;43.970;22.868;2023-07-31T00:16:10;12.07;;;10.97;;
63807;SDS011;49961;43.970;22.868;2023-07-31T00:17:11;11.77;;;10.77;;
63807;SDS011;49961;43.970;22.868;2023-07-31T00:18:11;12.03;;;10.93;;
63807;SDS011;49961;43.970;22.868;2023-07-31T00:19:12;12.50;;;11.40;;
63807;SDS011;49961;43.970;22.868;2023-07-31T00:20:12;12.10;;;11.07;;
63807;SDS011;49961;43.970;22.868;2023-07-31T00:21:13;12.17;;;10.97;;
63807;SDS011;49961;43.970;22.868;2023-07-31T00:22:13;12.23;;;11.03;;
63807;SDS011;49961;43.970;22.868;2023-07-31T00:23:14;11.73;;;10.73;;
63807;SDS011;49961;43.970;22.868;2023-07-31T00:24:14;12.80;;;11.70;;
63807;SDS011;49961;43.970;22.868;2023-07-31T00:25:14;13.57;;;12.27;;
63807;SDS011;49961;43.970;22.868;2023-07-31T00:26:15;12.87;;;11.63;;
63807;SDS011;49961;43.970;22.868;2023-07-31T00:27:15;12.97;;;11.80;;
63807;SDS011;49961;43.970;22.868;2023-07-31T00:28:16;13.07;;;11.97;;
63807;SDS011;49961;43.970;22.868;2023-07-31T00:29:16;13.30;;;12.10;;
63807;SDS011;49961;43.970;22.868;2023-07-31T00:30:16;13.20;;;12.00;;
63807;SDS011;49961;43.970;22.868;2023-07-31T00:31:17;13.60;;;12.30;;
63807;SDS011;49961;43.970;22.868;2023-07-31T00:32:17;13.30;;;12.20;;
63807;SDS011;49961;43.970;22.868;2023-07-31T00:33:18;13.17;;;11.97;;
63807;SDS011;49961;43.970;22.868;2023-07-31T00:34:18;14.40;;;13.10;;
63807;SDS011;49961;43.970;22.868;2023-07-31T00:35:19;13.30;;;12.00;;
63807;SDS011;49961;43.970;22.868;2023-07-31T00:36:19;13.30;;;11.97;;
63807;SDS011;49961;43.970;22.868;2023-07-31T00:37:19;13.70;;;12.50;;
63807;SDS011;49961;43.970;22.868;2023-07-31T00:38:20;13.53;;;12.43;;
63807;SDS011;49961;43.970;22.868;2023-07-31T00:39:20;14.13;;;12.93;;
63807;SDS011;49961;43.970;22.868;2023-07-31T00:40:21;13.43;;;12.27;;
63807;SDS011;49961;43.970;22.868;2023-07-31T00:41:21;13.30;;;12.10;;
63807;SDS011;49961;43.970;22.868;2023-07-31T00:42:21;14.27;;;12.80;;
63807;SDS011;49961;43.970;22.868;2023-07-31T00:43:22;13.00;;;11.77;;
63807;SDS011;49961;43.970;22.868;2023-07-31T00:44:23;13.73;;;12.53;;
63807;SDS011;49961;43.970;22.868;2023-07-31T00:45:23;13.50;;;12.10;;
63807;SDS011;49961;43.970;22.868;2023-07-31T00:46:24;13.40;;;12.30;;
63807;SDS011;49961;43.970;22.868;2023-07-31T00:47:24;13.50;;;12.20;;
63807;SDS011;49961;43.970;22.868;2023-07-31T00:48:25;13.57;;;12.37;;
63807;SDS011;49961;43.970;22.868;2023-07-31T00:49:26;13.37;;;12.00;;
63807;SDS011;49961;43.970;22.868;2023-07-31T00:50:27;13.93;;;12.70;;
63807;SDS011;49961;43.970;22.868;2023-07-31T00:51:28;13.53;;;12.30;;
63807;SDS011;49961;43.970;22.868;2023-07-31T00:52:29;13.77;;;12.57;;
63807;SDS011;49961;43.970;22.868;2023-07-31T00:53:29;13.17;;;12.07;;
63807;SDS011;49961;43.970;22.868;2023-07-31T00:54:30;14.47;;;12.60;;
63807;SDS011;49961;43.970;22.868;2023-07-31T00:55:30;13.93;;;12.40;;
63807;SDS011;49961;43.970;22.868;2023-07-31T00:56:31;13.77;;;11.97;;
63807;SDS011;49961;43.970;22.868;2023-07-31T00:57:32;13.00;;;11.93;;
63807;SDS011;49961;43.970;22.868;2023-07-31T00:58:34;14.37;;;12.90;;
63807;SDS011;49961;43.970;22.868;2023-07-31T00:59:35;13.53;;;12.33;;
63807;SDS011;49961;43.970;22.868;2023-07-31T01:00:35;14.00;;;12.70;;
63807;SDS011;49961;43.970;22.868;2023-07-31T01:01:36;13.87;;;12.57;;
63807;SDS011;49961;43.970;22.868;2023-07-31T01:02:36;13.93;;;12.73;;
63807;SDS011;49961;43.970;22.868;2023-07-31T01:03:37;14.63;;;13.27;;
63807;SDS011;49961;43.970;22.868;2023-07-31T01:04:39;13.87;;;12.73;;
63807;SDS011;49961;43.970;22.868;2023-07-31T01:05:43;14.13;;;12.77;;
63807;SDS011;49961;43.970;22.868;2023-07-31T01:06:48;13.20;;;12.10;;
63807;SDS011;49961;43.970;22.868;2023-07-31T01:08:49;13.83;;;12.73;;
63807;SDS011;49961;43.970;22.868;2023-07-31T01:09:40;13.93;;;12.63;;
63807;SDS011;49961;43.970;22.868;2023-07-31T01:10:46;13.67;;;12.47;;
63807;SDS011;49961;43.970;22.868;2023-07-31T01:11:56;14.10;;;12.73;;
63807;SDS011;49961;43.970;22.868;2023-07-31T01:12:59;13.30;;;12.20;;
63807;SDS011;49961;43.970;22.868;2023-07-31T01:14:00;13.40;;;12.20;;
63807;SDS011;49961;43.970;22.868;2023-07-31T01:15:05;14.10;;;12.90;;
63807;SDS011;49961;43.970;22.868;2023-07-31T01:16:09;13.80;;;12.47;;
63807;SDS011;49961;43.970;22.868;2023-07-31T01:17:09;13.93;;;12.80;;
63807;SDS011;49961;43.970;22.868;2023-07-31T01:18:10;13.30;;;12.20;;
63807;SDS011;49961;43.970;22.868;2023-07-31T01:19:10;13.90;;;12.60;;
63807;SDS011;49961;43.970;22.868;2023-07-31T01:26:38;14.23;;;12.83;;
63807;SDS011;49961;43.970;22.868;2023-07-31T01:27:43;14.23;;;12.87;;
63807;SDS011;49961;43.970;22.868;2023-07-31T01:29:00;14.60;;;13.03;;
63807;SDS011;49961;43.970;22.868;2023-07-31T01:30:08;14.60;;;13.30;;
63807;SDS011;49961;43.970;22.868;2023-07-31T01:31:18;14.20;;;12.90;;
63807;SDS011;49961;43.970;22.868;2023-07-31T01:32:22;14.87;;;13.47;;
63807;SDS011;49961;43.970;22.868;2023-07-31T01:33:23;14.87;;;13.47;;
63807;SDS011;49961;43.970;22.868;2023-07-31T01:34:24;14.57;;;13.17;;
63807;SDS011;49961;43.970;22.868;2023-07-31T01:35:26;14.97;;;13.50;;
63807;SDS011;49961;43.970;22.868;2023-07-31T01:36:27;14.07;;;12.67;;
63807;SDS011;49961;43.970;22.868;2023-07-31T01:37:28;15.00;;;13.70;;
63807;SDS011;49961;43.970;22.868;2023-07-31T01:38:32;14.90;;;13.50;;
63807;SDS011;49961;43.970;22.868;2023-07-31T01:39:32;14.60;;;13.40;;
63807;SDS011;49961;43.970;22.868;2023-07-31T01:40:33;15.37;;;13.90;;
63807;SDS011;49961;43.970;22.868;2023-07-31T01:41:33;15.07;;;13.67;;
63807;SDS011;49961;43.970;22.868;2023-07-31T01:42:34;15.43;;;14.03;;
63807;SDS011;49961;43.970;22.868;2023-07-31T01:43:34;14.87;;;13.50;;
63807;SDS011;49961;43.970;22.868;2023-07-31T01:44:34;14.37;;;12.87;;
63807;SDS011;49961;43.970;22.868;2023-07-31T01:45:35;14.87;;;13.40;;
63807;SDS011;49961;43.970;22.868;2023-07-31T01:46:35;14.13;;;12.93;;
63807;SDS011;49961;43.970;22.868;2023-07-31T01:47:36;15.57;;;14.17;;
63807;SDS011;49961;43.970;22.868;2023-07-31T01:48:36;14.60;;;13.13;;
63807;SDS011;49961;43.970;22.868;2023-07-31T01:49:37;14.30;;;12.87;;
63807;SDS011;49961;43.970;22.868;2023-07-31T01:50:37;15.80;;;13.70;;
63807;SDS011;49961;43.970;22.868;2023-07-31T01:51:38;14.90;;;12.90;;
63807;SDS011;49961;43.970;22.868;2023-07-31T01:52:38;14.83;;;13.47;;
63807;SDS011;49961;43.970;22.868;2023-07-31T01:53:38;14.40;;;13.10;;
63807;SDS011;49961;43.970;22.868;2023-07-31T01:54:39;15.00;;;13.50;;
63807;SDS011;49961;43.970;22.868;2023-07-31T01:55:39;14.80;;;13.40;;
63807;SDS011;49961;43.970;22.868;2023-07-31T01:56:40;14.70;;;13.30;;
63807;SDS011;49961;43.970;22.868;2023-07-31T01:57:40;13.87;;;12.57;;
63807;SDS011;49961;43.970;22.868;2023-07-31T01:58:41;14.27;;;12.87;;
63807;SDS011;49961;43.970;22.868;2023-07-31T01:59:41;13.07;;;11.83;;
63807;SDS011;49961;43.970;22.868;2023-07-31T02:00:41;13.50;;;12.30;;
63807;SDS011;49961;43.970;22.868;2023-07-31T02:01:42;14.13;;;12.63;;
63807;SDS011;49961;43.970;22.868;2023-07-31T02:02:42;13.40;;;12.10;;
63807;SDS011;49961;43.970;22.868;2023-07-31T02:03:43;13.27;;;12.07;;
63807;SDS011;49961;43.970;22.868;2023-07-31T02:04:43;12.43;;;11.33;;
63807;SDS011;49961;43.970;22.868;2023-07-31T02:05:47;13.00;;;11.73;;
63807;SDS011;49961;43.970;22.868;2023-07-31T02:06:48;13.67;;;12.37;;
63807;SDS011;49961;43.970;22.868;2023-07-31T02:07:48;12.40;;;11.27;;
63807;SDS011;49961;43.970;22.868;2023-07-31T02:08:49;13.03;;;11.87;;
63807;SDS011;49961;43.970;22.868;2023-07-31T02:09:49;12.07;;;10.83;;
63807;SDS011;49961;43.970;22.868;2023-07-31T02:10:51;12.40;;;11.27;;
63807;SDS011;49961;43.970;22.868;2023-07-31T02:11:51;12.13;;;10.83;;
63807;SDS011;49961;43.970;22.868;2023-07-31T02:12:52;12.23;;;10.90;;
63807;SDS011;49961;43.970;22.868;2023-07-31T02:13:52;11.80;;;10.70;;
63807;SDS011;49961;43.970;22.868;2023-07-31T02:14:53;10.60;;;9.70;;
63807;SDS011;49961;43.970;22.868;2023-07-31T02:15:53;10.60;;;9.67;;
63807;SDS011;49961;43.970;22.868;2023-07-31T02:16:54;11.27;;;10.03;;
63807;SDS011;49961;43.970;22.868;2023-07-31T02:17:54;10.43;;;9.43;;
63807;SDS011;49961;43.970;22.868;2023-07-31T02:18:54;9.70;;;8.90;;
63807;SDS011;49961;43.970;22.868;2023-07-31T02:19:55;10.40;;;9.43;;
63807;SDS011;49961;43.970;22.868;2023-07-31T02:20:55;9.97;;;9.00;;
63807;SDS011;49961;43.970;22.868;2023-07-31T02:21:56;9.97;;;9.07;;
63807;SDS011;49961;43.970;22.868;2023-07-31T02:22:56;10.73;;;9.83;;
63807;SDS011;49961;43.970;22.868;2023-07-31T02:23:57;9.60;;;8.80;;
63807;SDS011;49961;43.970;22.868;2023-07-31T02:24:57;10.17;;;9.00;;
63807;SDS011;49961;43.970;22.868;2023-07-31T02:25:57;10.20;;;9.40;;
63807;SDS011;49961;43.970;22.868;2023-07-31T02:26:58;9.60;;;8.70;;
63807;SDS011;49961;43.970;22.868;2023-07-31T02:27:58;9.87;;;8.97;;
63807;SDS011;49961;43.970;22.868;2023-07-31T02:28:59;9.47;;;8.63;;
63807;SDS011;49961;43.970;22.868;2023-07-31T02:29:59;9.97;;;8.97;;
63807;SDS011;49961;43.970;22.868;2023-07-31T02:31:00;9.40;;;8.60;;
63807;SDS011;49961;43.970;22.868;2023-07-31T02:32:00;9.90;;;9.00;;
63807;SDS011;49961;43.970;22.868;2023-07-31T02:33:00;9.33;;;8.43;;
63807;SDS011;49961;43.970;22.868;2023-07-31T02:34:01;8.90;;;8.00;;
63807;SDS011;49961;43.970;22.868;2023-07-31T02:35:01;10.57;;;8.80;;
63807;SDS011;49961;43.970;22.868;2023-07-31T02:36:02;9.20;;;8.40;;
63807;SDS011;49961;43.970;22.868;2023-07-31T02:37:02;9.90;;;8.90;;
63807;SDS011;49961;43.970;22.868;2023-07-31T02:38:03;9.10;;;8.30;;
63807;SDS011;49961;43.970;22.868;2023-07-31T02:39:03;9.30;;;8.10;;
63807;SDS011;49961;43.970;22.868;2023-07-31T02:40:04;9.90;;;8.10;;
63807;SDS011;49961;43.970;22.868;2023-07-31T02:41:05;8.33;;;7.53;;
63807;SDS011;49961;43.970;22.868;2023-07-31T02:42:05;8.27;;;7.37;;
63807;SDS011;49961;43.970;22.868;2023-07-31T02:43:06;8.10;;;7.37;;
63807;SDS011;49961;43.970;22.868;2023-07-31T02:44:06;9.43;;;7.90;;
63807;SDS011;49961;43.970;22.868;2023-07-31T02:45:07;8.13;;;7.33;;
63807;SDS011;49961;43.970;22.868;2023-07-31T02:46:08;8.67;;;7.67;;
63807;SDS011;49961;43.970;22.868;2023-07-31T02:47:08;8.80;;;7.90;;
63807;SDS011;49961;43.970;22.868;2023-07-31T02:48:09;8.50;;;7.70;;
63807;SDS011;49961;43.970;22.868;2023-07-31T02:49:09;8.10;;;7.40;;
63807;SDS011;49961;43.970;22.868;2023-07-31T02:50:10;8.40;;;7.60;;
63807;SDS011;49961;43.970;22.868;2023-07-31T02:51:10;10.37;;;7.43;;
63807;SDS011;49961;43.970;22.868;2023-07-31T02:52:11;8.30;;;7.50;;
63807;SDS011;49961;43.970;22.868;2023-07-31T02:53:11;8.17;;;7.30;;
63807;SDS011;49961;43.970;22.868;2023-07-31T02:54:11;7.83;;;7.13;;
63807;SDS011;49961;43.970;22.868;2023-07-31T02:55:12;8.10;;;7.30;;
63807;SDS011;49961;43.970;22.868;2023-07-31T02:56:12;7.67;;;6.97;;
63807;SDS011;49961;43.970;22.868;2023-07-31T02:57:12;8.53;;;7.50;;
63807;SDS011;49961;43.970;22.868;2023-07-31T02:58:13;9.00;;;7.20;;
63807;SDS011;49961;43.970;22.868;2023-07-31T02:59:13;7.73;;;7.03;;
63807;SDS011;49961;43.970;22.868;2023-07-31T03:00:14;7.97;;;7.17;;
63807;SDS011;49961;43.970;22.868;2023-07-31T03:01:14;7.83;;;6.83;;
63807;SDS011;49961;43.970;22.868;2023-07-31T03:02:15;9.33;;;7.47;;
63807;SDS011;49961;43.970;22.868;2023-07-31T03:03:15;8.27;;;7.20;;
63807;SDS011;49961;43.970;22.868;2023-07-31T03:04:15;8.10;;;7.30;;
63807;SDS011;49961;43.970;22.868;2023-07-31T03:05:16;7.77;;;6.97;;
63807;SDS011;49961;43.970;22.868;2023-07-31T03:06:16;8.20;;;7.40;;
63807;SDS011;49961;43.970;22.868;2023-07-31T03:07:17;7.77;;;7.00;;
63807;SDS011;49961;43.970;22.868;2023-07-31T03:08:17;8.13;;;7.10;;
63807;SDS011;49961;43.970;22.868;2023-07-31T03:09:18;8.03;;;7.33;;
63807;SDS011;49961;43.970;22.868;2023-07-31T03:10:18;8.57;;;7.67;;
63807;SDS011;49961;43.970;22.868;2023-07-31T03:11:19;8.20;;;6.70;;
63807;SDS011;49961;43.970;22.868;2023-07-31T03:12:19;8.13;;;7.33;;
63807;SDS011;49961;43.970;22.868;2023-07-31T03:13:20;8.57;;;6.83;;
63807;SDS011;49961;43.970;22.868;2023-07-31T03:14:20;8.73;;;7.23;;
63807;SDS011;49961;43.970;22.868;2023-07-31T03:15:20;8.00;;;7.27;;
63807;SDS011;49961;43.970;22.868;2023-07-31T03:16:21;8.17;;;7.00;;
63807;SDS011;49961;43.970;22.868;2023-07-31T03:17:22;7.90;;;7.10;;
63807;SDS011;49961;43.970;22.868;2023-07-31T03:18:22;7.53;;;6.83;;
63807;SDS011;49961;43.970;22.868;2023-07-31T03:19:23;8.03;;;7.30;;
63807;SDS011;49961;43.970;22.868;2023-07-31T03:20:23;7.83;;;6.80;;
63807;SDS011;49961;43.970;22.868;2023-07-31T03:21:24;10.17;;;6.90;;
63807;SDS011;49961;43.970;22.868;2023-07-31T03:22:24;7.70;;;7.00;;
63807;SDS011;49961;43.970;22.868;2023-07-31T03:23:24;8.17;;;7.37;;
63807;SDS011;49961;43.970;22.868;2023-07-31T03:24:26;7.40;;;6.60;;
63807;SDS011;49961;43.970;22.868;2023-07-31T03:25:26;7.40;;;6.60;;
63807;SDS011;49961;43.970;22.868;2023-07-31T03:26:26;6.73;;;6.13;;
63807;SDS011;49961;43.970;22.868;2023-07-31T03:27:27;7.93;;;6.13;;
63807;SDS011;49961;43.970;22.868;2023-07-31T03:28:27;5.97;;;5.37;;
63807;SDS011;49961;43.970;22.868;2023-07-31T03:29:27;6.57;;;5.90;;
63807;SDS011;49961;43.970;22.868;2023-07-31T03:30:28;5.87;;;5.27;;
63807;SDS011;49961;43.970;22.868;2023-07-31T03:31:28;7.47;;;5.63;;
63807;SDS011;49961;43.970;22.868;2023-07-31T03:32:29;6.37;;;5.50;;
63807;SDS011;49961;43.970;22.868;2023-07-31T03:33:29;5.83;;;5.23;;
63807;SDS011;49961;43.970;22.868;2023-07-31T03:34:29;5.67;;;4.97;;
63807;SDS011;49961;43.970;22.868;2023-07-31T03:35:32;6.70;;;5.33;;
63807;SDS011;49961;43.970;22.868;2023-07-31T03:36:32;7.70;;;4.93;;
63807;SDS011;49961;43.970;22.868;2023-07-31T03:37:33;6.60;;;5.13;;
63807;SDS011;49961;43.970;22.868;2023-07-31T03:38:33;8.00;;;5.30;;
63807;SDS011;49961;43.970;22.868;2023-07-31T03:39:35;5.90;;;4.60;;
63807;SDS011;49961;43.970;22.868;2023-07-31T03:40:35;5.07;;;4.57;;
63807;SDS011;49961;43.970;22.868;2023-07-31T03:41:36;5.17;;;4.67;;
63807;SDS011;49961;43.970;22.868;2023-07-31T03:42:36;5.07;;;4.23;;
63807;SDS011;49961;43.970;22.868;2023-07-31T03:43:36;5.10;;;4.60;;
63807;SDS011;49961;43.970;22.868;2023-07-31T03:44:37;5.30;;;4.70;;
63807;SDS011;49961;43.970;22.868;2023-07-31T03:45:37;5.97;;;4.40;;
63807;SDS011;49961;43.970;22.868;2023-07-31T03:46:38;5.70;;;4.40;;
63807;SDS011;49961;43.970;22.868;2023-07-31T03:47:38;5.10;;;4.60;;
63807;SDS011;49961;43.970;22.868;2023-07-31T03:48:39;5.10;;;4.60;;
63807;SDS011;49961;43.970;22.868;2023-07-31T03:49:39;5.73;;;4.20;;
63807;SDS011;49961;43.970;22.868;2023-07-31T03:50:39;5.10;;;4.60;;
63807;SDS011;49961;43.970;22.868;2023-07-31T03:51:40;7.10;;;4.40;;
63807;SDS011;49961;43.970;22.868;2023-07-31T03:52:41;5.73;;;4.40;;
63807;SDS011;49961;43.970;22.868;2023-07-31T03:53:42;4.60;;;4.20;;
63807;SDS011;49961;43.970;22.868;2023-07-31T03:54:43;5.20;;;4.20;;
63807;SDS011;49961;43.970;22.868;2023-07-31T03:55:44;5.47;;;4.80;;
63807;SDS011;49961;43.970;22.868;2023-07-31T03:56:45;5.10;;;4.60;;
63807;SDS011;49961;43.970;22.868;2023-07-31T03:57:45;7.10;;;4.43;;
63807;SDS011;49961;43.970;22.868;2023-07-31T03:58:45;5.03;;;4.20;;
63807;SDS011;49961;43.970;22.868;2023-07-31T03:59:46;5.43;;;4.50;;
63807;SDS011;49961;43.970;22.868;2023-07-31T04:00:46;5.57;;;4.63;;
63807;SDS011;49961;43.970;22.868;2023-07-31T04:01:47;4.90;;;4.40;;
63807;SDS011;49961;43.970;22.868;2023-07-31T04:02:47;4.50;;;4.10;;
63807;SDS011;49961;43.970;22.868;2023-07-31T04:03:48;4.77;;;4.23;;
63807;SDS011;49961;43.970;22.868;2023-07-31T04:04:48;5.67;;;4.50;;
63807;SDS011;49961;43.970;22.868;2023-07-31T04:05:49;5.30;;;4.77;;
63807;SDS011;49961;43.970;22.868;2023-07-31T04:06:49;5.00;;;4.50;;
63807;SDS011;49961;43.970;22.868;2023-07-31T04:07:49;4.60;;;4.20;;
63807;SDS011;49961;43.970;22.868;2023-07-31T04:08:50;5.17;;;4.67;;
63807;SDS011;49961;43.970;22.868;2023-07-31T04:09:50;5.37;;;4.60;;
63807;SDS011;49961;43.970;22.868;2023-07-31T04:10:50;6.37;;;4.50;;
63807;SDS011;49961;43.970;22.868;2023-07-31T04:11:51;6.03;;;4.40;;
63807;SDS011;49961;43.970;22.868;2023-07-31T04:12:51;5.50;;;4.53;;
63807;SDS011;49961;43.970;22.868;2023-07-31T04:13:52;6.23;;;4.67;;
63807;SDS011;49961;43.970;22.868;2023-07-31T04:14:52;5.43;;;4.80;;
63807;SDS011;49961;43.970;22.868;2023-07-31T04:15:52;6.87;;;4.57;;
63807;SDS011;49961;43.970;22.868;2023-07-31T04:16:54;6.47;;;4.57;;
63807;SDS011;49961;43.970;22.868;2023-07-31T04:17:54;6.13;;;4.10;;
63807;SDS011;49961;43.970;22.868;2023-07-31T04:18:55;6.13;;;5.10;;
63807;SDS011;49961;43.970;22.868;2023-07-31T04:19:55;5.07;;;4.57;;
63807;SDS011;49961;43.970;22.868;2023-07-31T04:20:55;6.70;;;4.37;;
63807;SDS011;49961;43.970;22.868;2023-07-31T04:21:56;5.53;;;4.87;;
63807;SDS011;49961;43.970;22.868;2023-07-31T04:22:56;4.83;;;4.33;;
63807;SDS011;49961;43.970;22.868;2023-07-31T04:23:57;5.77;;;4.20;;
63807;SDS011;49961;43.970;22.868;2023-07-31T04:24:58;4.90;;;4.30;;
63807;SDS011;49961;43.970;22.868;2023-07-31T04:25:58;4.77;;;4.27;;
63807;SDS011;49961;43.970;22.868;2023-07-31T04:26:59;5.00;;;4.20;;
63807;SDS011;49961;43.970;22.868;2023-07-31T04:27:59;5.10;;;4.40;;
63807;SDS011;49961;43.970;22.868;2023-07-31T04:29:00;5.37;;;4.30;;
63807;SDS011;49961;43.970;22.868;2023-07-31T04:30:00;5.40;;;4.37;;
63807;SDS011;49961;43.970;22.868;2023-07-31T04:31:00;5.13;;;4.63;;
63807;SDS011;49961;43.970;22.868;2023-07-31T04:32:01;5.50;;;4.30;;
63807;SDS011;49961;43.970;22.868;2023-07-31T04:33:01;5.20;;;4.70;;
63807;SDS011;49961;43.970;22.868;2023-07-31T04:34:02;8.70;;;4.70;;
63807;SDS011;49961;43.970;22.868;2023-07-31T04:35:03;6.77;;;4.67;;
63807;SDS011;49961;43.970;22.868;2023-07-31T04:36:04;5.97;;;4.97;;
63807;SDS011;49961;43.970;22.868;2023-07-31T04:37:04;6.57;;;4.67;;
63807;SDS011;49961;43.970;22.868;2023-07-31T04:38:05;6.53;;;4.40;;
63807;SDS011;49961;43.970;22.868;2023-07-31T04:39:05;4.80;;;4.40;;
63807;SDS011;49961;43.970;22.868;2023-07-31T04:40:06;5.87;;;4.53;;
63807;SDS011;49961;43.970;22.868;2023-07-31T04:41:07;5.83;;;4.50;;
63807;SDS011;49961;43.970;22.868;2023-07-31T04:42:07;4.70;;;4.20;;
63807;SDS011;49961;43.970;22.868;2023-07-31T04:43:08;6.57;;;4.80;;
63807;SDS011;49961;43.970;22.868;2023-07-31T04:44:08;6.23;;;4.73;;
63807;SDS011;49961;43.970;22.868;2023-07-31T04:45:11;5.43;;;4.30;;
63807;SDS011;49961;43.970;22.868;2023-07-31T04:46:11;7.17;;;4.50;;
63807;SDS011;49961;43.970;22.868;2023-07-31T04:47:12;4.90;;;4.40;;
63807;SDS011;49961;43.970;22.868;2023-07-31T04:48:12;5.03;;;4.53;;
63807;SDS011;49961;43.970;22.868;2023-07-31T04:49:12;5.37;;;4.40;;
63807;SDS011;49961;43.970;22.868;2023-07-31T04:50:13;5.83;;;4.50;;
63807;SDS011;49961;43.970;22.868;2023-07-31T04:51:13;5.07;;;4.53;;
63807;SDS011;49961;43.970;22.868;2023-07-31T04:52:14;5.73;;;4.30;;
63807;SDS011;49961;43.970;22.868;2023-07-31T04:53:14;4.90;;;4.40;;
63807;SDS011;49961;43.970;22.868;2023-07-31T04:54:14;5.40;;;4.37;;
63807;SDS011;49961;43.970;22.868;2023-07-31T04:55:15;4.87;;;4.30;;
63807;SDS011;49961;43.970;22.868;2023-07-31T04:56:15;5.57;;;4.40;;
63807;SDS011;49961;43.970;22.868;2023-07-31T04:57:16;5.40;;;4.03;;
63807;SDS011;49961;43.970;22.868;2023-07-31T04:58:16;5.47;;;4.20;;
63807;SDS011;49961;43.970;22.868;2023-07-31T04:59:17;4.80;;;4.03;;
63807;SDS011;49961;43.970;22.868;2023-07-31T05:00:17;5.80;;;4.40;;
63807;SDS011;49961;43.970;22.868;2023-07-31T05:01:18;6.13;;;4.37;;
63807;SDS011;49961;43.970;22.868;2023-07-31T05:02:18;5.03;;;4.40;;
63807;SDS011;49961;43.970;22.868;2023-07-31T05:03:18;4.50;;;4.10;;
63807;SDS011;49961;43.970;22.868;2023-07-31T05:04:19;5.37;;;4.10;;
63807;SDS011;49961;43.970;22.868;2023-07-31T05:05:19;7.53;;;4.20;;
63807;SDS011;49961;43.970;22.868;2023-07-31T05:06:20;5.70;;;4.30;;
63807;SDS011;49961;43.970;22.868;2023-07-31T05:07:20;5.93;;;4.40;;
63807;SDS011;49961;43.970;22.868;2023-07-31T05:08:21;5.03;;;3.90;;
63807;SDS011;49961;43.970;22.868;2023-07-31T05:09:21;5.27;;;4.20;;
63807;SDS011;49961;43.970;22.868;2023-07-31T05:10:21;4.17;;;3.73;;
63807;SDS011;49961;43.970;22.868;2023-07-31T05:11:22;5.07;;;4.07;;
63807;SDS011;49961;43.970;22.868;2023-07-31T05:12:22;4.33;;;3.93;;
63807;SDS011;49961;43.970;22.868;2023-07-31T05:13:23;4.80;;;3.90;;
63807;SDS011;49961;43.970;22.868;2023-07-31T05:14:23;5.00;;;4.07;;
63807;SDS011;49961;43.970;22.868;2023-07-31T05:15:23;4.13;;;3.60;;
63807;SDS011;49961;43.970;22.868;2023-07-31T05:16:24;4.27;;;3.73;;
63807;SDS011;49961;43.970;22.868;2023-07-31T05:17:24;4.30;;;3.57;;
63807;SDS011;49961;43.970;22.868;2023-07-31T05:18:25;5.83;;;3.37;;
63807;SDS011;49961;43.970;22.868;2023-07-31T05:19:25;3.80;;;3.40;;
63807;SDS011;49961;43.970;22.868;2023-07-31T05:20:25;5.57;;;3.47;;
63807;SDS011;49961;43.970;22.868;2023-07-31T05:21:27;5.17;;;3.20;;
63807;SDS011;49961;43.970;22.868;2023-07-31T05:22:28;6.03;;;3.73;;
63807;SDS011;49961;43.970;22.868;2023-07-31T05:23:28;4.67;;;3.40;;
63807;SDS011;49961;43.970;22.868;2023-07-31T05:24:29;4.33;;;3.03;;
63807;SDS011;49961;43.970;22.868;2023-07-31T05:25:29;4.13;;;3.37;;
63807;SDS011;49961;43.970;22.868;2023-07-31T05:26:30;3.67;;;3.30;;
63807;SDS011;49961;43.970;22.868;2023-07-31T05:27:30;3.97;;;3.57;;
63807;SDS011;49961;43.970;22.868;2023-07-31T05:28:31;4.13;;;3.73;;
63807;SDS011;49961;43.970;22.868;2023-07-31T05:29:32;4.47;;;3.90;;
63807;SDS011;49961;43.970;22.868;2023-07-31T05:30:32;5.20;;;3.97;;
63807;SDS011;49961;43.970;22.868;2023-07-31T05:31:32;5.30;;;4.20;;
63807;SDS011;49961;43.970;22.868;2023-07-31T05:32:33;4.90;;;4.40;;
63807;SDS011;49961;43.970;22.868;2023-07-31T05:33:34;5.97;;;4.37;;
63807;SDS011;49961;43.970;22.868;2023-07-31T05:34:34;5.90;;;5.00;;
63807;SDS011;49961;43.970;22.868;2023-07-31T05:35:35;5.53;;;4.80;;
63807;SDS011;49961;43.970;22.868;2023-07-31T05:36:35;5.70;;;5.03;;
63807;SDS011;49961;43.970;22.868;2023-07-31T05:37:35;5.53;;;4.77;;
63807;SDS011;49961;43.970;22.868;2023-07-31T05:38:36;5.60;;;5.10;;
63807;SDS011;49961;43.970;22.868;2023-07-31T05:39:36;5.90;;;5.20;;
63807;SDS011;49961;43.970;22.868;2023-07-31T05:40:37;5.80;;;5.30;;
63807;SDS011;49961;43.970;22.868;2023-07-31T05:41:37;5.70;;;5.20;;
63807;SDS011;49961;43.970;22.868;2023-07-31T05:42:38;5.90;;;5.30;;
63807;SDS011;49961;43.970;22.868;2023-07-31T05:43:38;6.27;;;5.67;;
63807;SDS011;49961;43.970;22.868;2023-07-31T05:44:39;5.60;;;5.07;;
63807;SDS011;49961;43.970;22.868;2023-07-31T05:45:39;5.30;;;4.80;;
63807;SDS011;49961;43.970;22.868;2023-07-31T05:46:40;5.47;;;4.63;;
63807;SDS011;49961;43.970;22.868;2023-07-31T05:47:40;5.43;;;4.93;;
63807;SDS011;49961;43.970;22.868;2023-07-31T05:48:41;5.17;;;4.20;;
63807;SDS011;49961;43.970;22.868;2023-07-31T05:49:41;5.57;;;5.07;;
63807;SDS011;49961;43.970;22.868;2023-07-31T05:50:43;5.43;;;4.50;;
63807;SDS011;49961;43.970;22.868;2023-07-31T05:51:44;5.47;;;4.73;;
63807;SDS011;49961;43.970;22.868;2023-07-31T05:52:44;7.00;;;4.63;;
63807;SDS011;49961;43.970;22.868;2023-07-31T05:53:45;5.40;;;4.33;;
63807;SDS011;49961;43.970;22.868;2023-07-31T05:54:45;7.10;;;4.50;;
63807;SDS011;49961;43.970;22.868;2023-07-31T05:55:46;5.60;;;4.70;;
63807;SDS011;49961;43.970;22.868;2023-07-31T05:56:46;6.33;;;5.07;;
63807;SDS011;49961;43.970;22.868;2023-07-31T05:57:48;5.13;;;4.63;;
63807;SDS011;49961;43.970;22.868;2023-07-31T05:58:48;5.00;;;4.50;;
63807;SDS011;49961;43.970;22.868;2023-07-31T05:59:50;5.20;;;4.63;;
63807;SDS011;49961;43.970;22.868;2023-07-31T06:00:50;5.87;;;5.00;;
63807;SDS011;49961;43.970;22.868;2023-07-31T06:01:51;5.30;;;4.67;;
63807;SDS011;49961;43.970;22.868;2023-07-31T06:02:52;6.23;;;4.60;;
63807;SDS011;49961;43.970;22.868;2023-07-31T06:03:53;9.50;;;4.93;;